Terminal Aerodrome Forecast
Issued by NWS

Home | Current Version | Previous Version | Text Only | Print | Product List | Glossary Off
Versions: 1 2 3 4 5 6 7 8 9 10 11 12 13 14 15

000
FTUS43 KGRB 200900 AAA
TAFCWA
TAF AMD
KCWA 200906Z 2009/2106 16008KT P6SM SCT050 OVC080 WS012/21040KT
      TEMPO 2009/2013 -RA BKN050
     FM201500 22006KT 6SM HZ BKN035 OVC060
     FM202200 VRB03KT 6SM BR SCT025 OVC050 PROB30 2022/2104 -SHRA
      BKN025
      AMD LTD TO CLD VIS AND WIND TIL 201200=

USA.gov is the U.S. government's official web portal to all federal, state and local government web resources and services.